Accueil
METAR-TAF:

METAR-TAF

Aéroports :

Kosrae, Micronésie

Aéroport international de Kosrae

latitude: 05-21N, longitude: 162-57E, altitude: 3 m

Observation

Le bulletin a été fait il y a 9 heures et 56 minutes, à 03:50 UTC
Vent 7 kt de ouest/sud-ouest
Température 31°C
Humidité 79%
Pression 1007 hPa
Visibilité: 16.1 km
Nuages fragmentés à une hauteur de 2200 ft
Nuages fragmentés à une hauteur de 13000 ft
Nuages fragmentés à une hauteur de 30000 ft
averses à proximité

METAR: PTSA 210350Z 24007KT 10SM VCSH BKN022 BKN130 BKN300 31/27 A2973 RMK VCSH W LAST

Heure: 00:46 (13:46 UTC)

Prévision

Le bulletin a été fait il y a 14 heures et 10 minutes, à 23:36 UTC
Prévision valable du 21 à 00 UTC au 21 à 24 UTC
Vent 13 kt de sud-ouest
Visibilité: 10 km
Nuages épars à une hauteur de 1800 ft
Nuages épars à une hauteur de 14000 ft
averses à proximité

TAF: PTSA 202336Z 2100/2124 23013KT P6SM VCSH SCT018 SCT140

Observations et prévisions météorologiques de plus de 4000 aéroports (messages METAR et TAF).

Les stations disponibles sont représentées par des disques jaunes et rouges sur la carte.

Passer la souris dessus pour voir le nom de la station.

Cliquer dessus pour voir les observations et prévisions météorologiques.

Pour changer de carte: cliquez sur les boutons verts avec une croix noire pour zoomer, sur le bouton vert avec un tiret pour effectuer un zoom arrière, ou sur les flèches vertes pour les cartes adjacentes.


METAR-TAF: